createdAt,value
2019-06-20T00:01:26.025Z,18.60
2019-06-20T00:03:54.436Z,18.60
2019-06-20T00:06:23.941Z,18.60
2019-06-20T00:08:52.363Z,18.50
2019-06-20T00:11:20.782Z,18.50
2019-06-20T00:13:49.212Z,18.40
2019-06-20T00:16:17.808Z,18.40
2019-06-20T00:18:46.208Z,18.30
2019-06-20T00:21:14.641Z,18.30
2019-06-20T00:23:43.050Z,18.20
2019-06-20T00:26:11.476Z,18.20
2019-06-20T00:28:39.899Z,18.10
2019-06-20T00:31:08.318Z,18.10
2019-06-20T00:33:36.743Z,18.10
2019-06-20T00:36:05.239Z,18.10
2019-06-20T00:38:33.658Z,18.00
2019-06-20T00:41:02.086Z,17.90
2019-06-20T00:43:30.813Z,17.90
2019-06-20T00:45:59.237Z,17.80
2019-06-20T00:48:27.655Z,17.80
2019-06-20T00:50:56.086Z,17.70
2019-06-20T00:53:24.516Z,17.60
2019-06-20T00:55:53.260Z,17.60
2019-06-20T00:58:21.751Z,17.60
2019-06-20T01:00:50.173Z,17.60
2019-06-20T01:03:20.560Z,17.50
2019-06-20T01:05:48.798Z,17.50
2019-06-20T01:08:17.285Z,17.40
2019-06-20T01:10:45.717Z,17.40
2019-06-20T01:13:14.131Z,17.30
2019-06-20T01:15:42.739Z,17.30
2019-06-20T01:18:11.143Z,17.30
2019-06-20T01:20:39.850Z,17.30
2019-06-20T01:23:08.274Z,17.20
2019-06-20T01:25:38.636Z,17.20
2019-06-20T01:28:07.385Z,17.20
2019-06-20T01:30:35.877Z,17.20
2019-06-20T01:33:05.327Z,17.20
2019-06-20T01:35:33.754Z,17.10
2019-06-20T01:38:05.373Z,17.10
2019-06-20T01:40:33.871Z,17.00
2019-06-20T01:43:02.536Z,17.00
2019-06-20T01:45:31.051Z,17.00
2019-06-20T01:47:59.461Z,17.00
2019-06-20T01:50:27.897Z,16.90
2019-06-20T01:52:56.305Z,16.90
2019-06-20T01:55:25.018Z,16.90
2019-06-20T01:57:53.430Z,16.90
2019-06-20T02:00:37.100Z,16.90
2019-06-20T02:03:05.523Z,16.90
2019-06-20T02:05:33.957Z,17.00
2019-06-20T02:08:02.373Z,17.00
2019-06-20T02:10:30.813Z,17.10
2019-06-20T02:12:59.291Z,17.40
2019-06-20T02:15:27.789Z,17.70
2019-06-20T02:17:56.494Z,18.20
2019-06-20T02:20:47.764Z,18.50
2019-06-20T02:23:16.174Z,18.80
2019-06-20T02:25:44.978Z,19.00
2019-06-20T02:28:13.397Z,19.10
2019-06-20T02:30:41.829Z,19.10
2019-06-20T02:33:10.711Z,19.20
2019-06-20T02:35:40.248Z,19.20
2019-06-20T02:38:08.739Z,19.10
2019-06-20T02:40:37.394Z,19.20
2019-06-20T02:43:06.053Z,19.10
2019-06-20T02:45:34.719Z,19.10
2019-06-20T02:48:05.236Z,19.10
2019-06-20T02:50:34.159Z,19.00
2019-06-20T02:53:04.823Z,19.00
2019-06-20T02:55:33.306Z,19.00
2019-06-20T02:58:01.726Z,18.90
2019-06-20T03:00:42.635Z,18.90
2019-06-20T03:03:11.061Z,18.90
2019-06-20T03:05:39.740Z,18.90
2019-06-20T03:08:08.170Z,18.90
2019-06-20T03:10:37.965Z,18.80
2019-06-20T03:13:09.372Z,18.80
2019-06-20T03:15:36.611Z,18.70
2019-06-20T03:18:06.612Z,18.60
2019-06-20T03:20:34.984Z,18.50
2019-06-20T03:23:03.573Z,18.40
2019-06-20T03:25:32.002Z,18.30
2019-06-20T03:28:00.437Z,18.10
2019-06-20T03:30:28.917Z,17.90
2019-06-20T03:32:57.366Z,17.80
2019-06-20T03:35:25.826Z,17.70
2019-06-20T03:37:55.774Z,17.70
2019-06-20T03:40:24.253Z,17.70
2019-06-20T03:42:52.673Z,17.70
2019-06-20T03:45:21.090Z,17.70
2019-06-20T03:47:49.518Z,17.70
2019-06-20T03:50:18.109Z,17.60
2019-06-20T03:52:48.169Z,17.50
2019-06-20T03:55:16.851Z,17.40
2019-06-20T03:57:45.274Z,17.30
2019-06-20T04:00:15.739Z,17.20
2019-06-20T04:02:44.166Z,17.10
2019-06-20T04:05:12.755Z,16.90
2019-06-20T04:07:41.179Z,16.80
2019-06-20T04:10:09.830Z,16.70
2019-06-20T04:12:38.263Z,16.60
2019-06-20T04:15:18.694Z,16.60
2019-06-20T04:17:37.503Z,16.60
2019-06-20T04:20:06.770Z,16.50
2019-06-20T04:22:35.202Z,16.50
2019-06-20T04:25:03.628Z,16.50
2019-06-20T04:27:32.054Z,16.50
2019-06-20T04:30:00.481Z,16.50
2019-06-20T04:32:28.917Z,16.60
2019-06-20T04:34:57.330Z,16.60
2019-06-20T04:37:25.758Z,16.60
2019-06-20T04:39:54.183Z,16.70
2019-06-20T04:42:22.624Z,16.80
2019-06-20T04:44:52.745Z,16.80
2019-06-20T04:47:21.181Z,16.90
2019-06-20T04:49:49.606Z,17.00
2019-06-20T04:52:21.015Z,17.00
2019-06-20T04:54:49.443Z,17.10
2019-06-20T04:57:17.881Z,17.10
2019-06-20T04:59:47.366Z,17.10
2019-06-20T05:02:17.416Z,17.20
2019-06-20T05:04:45.844Z,17.20
2019-06-20T05:07:20.039Z,17.30
2019-06-20T05:09:48.744Z,17.30
2019-06-20T05:12:17.165Z,17.40
2019-06-20T05:14:45.582Z,17.50
2019-06-20T05:17:14.292Z,17.60
2019-06-20T05:19:42.724Z,17.70
2019-06-20T05:22:12.368Z,17.80
2019-06-20T05:24:40.851Z,18.00
2019-06-20T05:27:09.269Z,18.20
2019-06-20T05:29:38.011Z,18.50
2019-06-20T05:32:06.430Z,18.70
2019-06-20T05:34:34.858Z,19.00
2019-06-20T05:37:03.554Z,19.20
2019-06-20T05:39:31.975Z,19.30
2019-06-20T05:42:00.396Z,19.30
2019-06-20T05:44:28.829Z,19.40
2019-06-20T05:47:11.434Z,19.60
2019-06-20T05:49:27.395Z,20.00
2019-06-20T05:51:55.818Z,21.20
2019-06-20T05:54:24.246Z,23.20
2019-06-20T05:56:53.641Z,25.40
2019-06-20T05:59:22.070Z,26.70
2019-06-20T06:01:50.487Z,27.00
2019-06-20T06:04:18.925Z,26.80
2019-06-20T06:06:49.008Z,26.80
2019-06-20T06:09:20.166Z,28.00
2019-06-20T06:11:48.581Z,29.80
2019-06-20T06:14:17.035Z,31.70
2019-06-20T06:16:46.838Z,33.30
2019-06-20T06:19:15.278Z,34.60
2019-06-20T06:21:43.713Z,35.80
2019-06-20T06:24:12.194Z,36.70
2019-06-20T06:26:42.245Z,37.50
2019-06-20T06:29:10.771Z,37.80
2019-06-20T06:31:41.983Z,37.70
2019-06-20T06:34:10.482Z,37.00
2019-06-20T06:36:38.903Z,35.80
2019-06-20T06:39:09.249Z,34.80
2019-06-20T06:41:38.251Z,33.60
2019-06-20T06:44:08.465Z,33.50
2019-06-20T06:46:44.799Z,33.40
2019-06-20T06:49:07.225Z,32.70
2019-06-20T06:51:38.198Z,32.40
2019-06-20T06:54:05.875Z,32.60
2019-06-20T06:56:34.306Z,33.00
2019-06-20T06:59:02.973Z,32.70
2019-06-20T07:01:31.395Z,32.10
2019-06-20T07:03:59.895Z,31.60
2019-06-20T07:06:28.310Z,31.30
2019-06-20T07:08:56.746Z,30.50
2019-06-20T07:11:25.159Z,29.20
2019-06-20T07:13:53.603Z,28.10
2019-06-20T07:16:22.022Z,27.30
2019-06-20T07:18:51.536Z,27.70
2019-06-20T07:21:20.019Z,29.30
2019-06-20T07:23:49.703Z,30.20
2019-06-20T07:26:18.118Z,30.80
2019-06-20T07:28:46.555Z,32.00
2019-06-20T07:31:14.983Z,33.50
2019-06-20T07:33:43.462Z,34.80
2019-06-20T07:36:13.182Z,35.00
2019-06-20T07:38:41.605Z,35.20
2019-06-20T07:41:10.022Z,35.50
2019-06-20T07:43:38.446Z,34.60
2019-06-20T07:46:06.973Z,33.80
2019-06-20T07:48:35.399Z,33.10
2019-06-20T07:51:05.373Z,32.70
2019-06-20T07:53:33.808Z,32.20
2019-06-20T07:56:02.246Z,31.20
2019-06-20T07:58:30.663Z,30.20
2019-06-20T08:00:59.091Z,29.00
2019-06-20T08:03:28.860Z,27.90
2019-06-20T08:05:57.479Z,27.20
2019-06-20T08:08:25.891Z,26.80
2019-06-20T08:10:54.319Z,26.70
2019-06-20T08:13:22.740Z,26.70
2019-06-20T08:15:51.178Z,27.10
2019-06-20T08:18:19.913Z,27.90
2019-06-20T08:20:48.507Z,29.00
2019-06-20T08:23:16.954Z,30.60
2019-06-20T08:25:45.377Z,32.00
2019-06-20T08:28:13.807Z,32.90
2019-06-20T08:30:43.326Z,33.20
2019-06-20T08:33:12.375Z,33.30
2019-06-20T08:35:40.965Z,33.10
2019-06-20T08:38:09.401Z,32.50
2019-06-20T08:40:39.995Z,32.30
2019-06-20T08:43:09.362Z,32.20
2019-06-20T08:45:40.545Z,32.30
2019-06-20T08:48:09.122Z,32.20
2019-06-20T08:50:37.729Z,31.90
2019-06-20T08:53:06.496Z,31.70
2019-06-20T08:55:37.190Z,31.90
2019-06-20T08:58:06.249Z,32.30
2019-06-20T09:00:37.032Z,32.60
2019-06-20T09:03:06.069Z,33.40
2019-06-20T09:05:34.847Z,34.80
2019-06-20T09:10:39.470Z,38.10
2019-06-20T09:13:09.041Z,37.80
2019-06-20T09:15:37.969Z,36.10
2019-06-20T09:18:07.519Z,34.20
2019-06-20T09:20:36.579Z,32.50
2019-06-20T09:23:05.954Z,31.20
2019-06-20T09:25:34.764Z,30.00
2019-06-20T09:28:04.018Z,29.40
2019-06-20T09:30:32.690Z,28.90
2019-06-20T09:33:01.118Z,28.70
2019-06-20T09:35:29.807Z,28.50
2019-06-20T09:37:59.351Z,28.30
2019-06-20T09:40:28.465Z,28.10
2019-06-20T09:42:57.151Z,28.00
2019-06-20T09:45:26.614Z,28.10
2019-06-20T09:47:56.047Z,28.40
2019-06-20T09:50:25.113Z,28.70
2019-06-20T09:52:54.804Z,28.80
2019-06-20T09:55:23.921Z,28.70
2019-06-20T09:57:53.762Z,28.40
2019-06-20T10:00:25.527Z,28.60
2019-06-20T10:02:55.779Z,29.20
2019-06-20T10:05:24.301Z,30.00
2019-06-20T10:07:54.367Z,30.80
2019-06-20T10:10:28.314Z,31.50
2019-06-20T10:12:57.229Z,32.60
2019-06-20T10:15:30.998Z,33.30
2019-06-20T10:17:59.737Z,33.70
2019-06-20T10:20:28.606Z,33.60
2019-06-20T10:22:57.443Z,33.10
2019-06-20T10:25:26.056Z,32.50
2019-06-20T10:27:54.466Z,32.40
2019-06-20T10:30:24.239Z,32.10
2019-06-20T10:32:53.225Z,32.20
2019-06-20T10:35:23.936Z,33.10
2019-06-20T10:37:52.940Z,34.10
2019-06-20T10:40:23.491Z,33.90
2019-06-20T10:42:52.977Z,33.70
2019-06-20T10:45:24.690Z,33.90
2019-06-20T10:47:54.367Z,34.40
2019-06-20T10:50:22.963Z,34.50
2019-06-20T10:52:51.904Z,34.10
2019-06-20T10:55:21.513Z,34.00
2019-06-20T10:57:52.914Z,34.00
2019-06-20T11:00:30.780Z,33.30
2019-06-20T11:02:54.697Z,32.80
2019-06-20T11:05:24.895Z,33.00
2019-06-20T11:07:53.370Z,33.50
2019-06-20T11:10:24.361Z,33.40
2019-06-20T11:12:56.017Z,32.70
2019-06-20T11:15:23.002Z,31.90
2019-06-20T11:17:55.934Z,31.70
2019-06-20T11:20:23.136Z,32.20
2019-06-20T11:22:51.878Z,32.70
2019-06-20T11:25:20.439Z,32.80
2019-06-20T11:27:48.937Z,32.50
2019-06-20T11:30:23.195Z,32.20
2019-06-20T11:32:52.631Z,32.10
2019-06-20T11:35:26.121Z,31.90
2019-06-20T11:37:54.054Z,32.00
2019-06-20T11:40:22.726Z,32.30
2019-06-20T11:42:51.477Z,32.60
2019-06-20T11:45:20.215Z,32.80
2019-06-20T11:47:48.959Z,33.10
2019-06-20T11:50:20.534Z,33.10
2019-06-20T11:52:48.960Z,33.10
2019-06-20T11:55:17.847Z,33.00
2019-06-20T11:57:46.343Z,32.80
2019-06-20T12:00:16.510Z,32.50
2019-06-20T12:02:46.124Z,32.00
2019-06-20T12:05:17.622Z,31.40
2019-06-20T12:07:47.656Z,31.10
2019-06-20T12:10:16.989Z,30.70
2019-06-20T12:12:46.814Z,30.50
2019-06-20T12:15:18.118Z,30.30
2019-06-20T12:17:47.242Z,30.10
2019-06-20T12:20:17.686Z,30.10
2019-06-20T12:22:46.623Z,30.10
2019-06-20T12:25:17.378Z,29.60
2019-06-20T12:27:47.185Z,29.00
2019-06-20T12:30:17.709Z,28.80
2019-06-20T12:32:47.203Z,28.50
2019-06-20T12:35:15.764Z,28.40
2019-06-20T12:37:45.193Z,28.30
2019-06-20T12:40:15.909Z,28.40
2019-06-20T12:42:44.854Z,28.60
2019-06-20T12:45:15.485Z,28.80
2019-06-20T12:47:44.054Z,29.00
2019-06-20T12:50:12.710Z,29.10
2019-06-20T12:52:42.515Z,29.10
2019-06-20T12:55:14.560Z,28.90
2019-06-20T12:57:44.217Z,28.80
2019-06-20T13:00:18.443Z,28.90
2019-06-20T13:02:49.724Z,28.90
2019-06-20T13:05:20.500Z,28.90
2019-06-20T13:07:50.154Z,28.70
2019-06-20T13:10:20.132Z,28.70
2019-06-20T13:12:49.775Z,28.60
2019-06-20T13:15:18.622Z,28.40
2019-06-20T13:17:47.304Z,28.20
2019-06-20T13:20:19.507Z,28.00
2019-06-20T13:22:49.530Z,27.60
2019-06-20T13:25:18.413Z,27.40
2019-06-20T13:27:47.823Z,27.40
2019-06-20T13:30:17.581Z,27.50
2019-06-20T13:32:47.127Z,27.70
2019-06-20T13:35:17.143Z,27.80
2019-06-20T13:37:49.662Z,27.80
2019-06-20T13:40:17.285Z,27.90
2019-06-20T13:42:46.218Z,27.90
2019-06-20T13:45:22.226Z,27.80
2019-06-20T13:47:52.252Z,27.60
2019-06-20T13:50:22.455Z,27.40
2019-06-20T13:52:51.510Z,27.30
2019-06-20T13:55:21.405Z,27.10
2019-06-20T13:57:49.859Z,27.00
2019-06-20T14:00:22.541Z,27.00
2019-06-20T14:02:51.642Z,27.10
2019-06-20T14:05:20.493Z,27.10
2019-06-20T14:07:53.217Z,27.00
2019-06-20T14:10:19.717Z,26.90
2019-06-20T14:12:48.845Z,26.80
2019-06-20T14:15:19.149Z,26.80
2019-06-20T14:17:49.690Z,26.80
2019-06-20T14:20:20.828Z,27.00
2019-06-20T14:22:49.797Z,27.20
2019-06-20T14:25:18.942Z,27.50
2019-06-20T14:27:48.932Z,27.70
2019-06-20T14:30:18.063Z,27.70
2019-06-20T14:32:49.377Z,27.60
2019-06-20T14:35:20.438Z,27.40
2019-06-20T14:37:49.608Z,27.40
2019-06-20T14:40:19.694Z,27.30
2019-06-20T14:42:50.363Z,27.20
2019-06-20T14:45:20.819Z,27.10
2019-06-20T14:47:49.225Z,27.00
2019-06-20T14:50:17.843Z,26.80
2019-06-20T14:52:48.074Z,26.70
2019-06-20T14:55:16.786Z,26.70
2019-06-20T14:57:48.207Z,26.70
2019-06-20T15:00:17.030Z,26.60
2019-06-20T15:02:47.238Z,26.50
2019-06-20T15:05:17.091Z,26.40
2019-06-20T15:07:47.338Z,26.40
2019-06-20T15:10:19.638Z,26.30
2019-06-20T15:12:49.848Z,26.40
2019-06-20T15:15:19.197Z,26.40
2019-06-20T15:17:53.696Z,26.40
2019-06-20T15:20:22.261Z,26.40
2019-06-20T15:22:52.557Z,26.30
2019-06-20T15:25:21.511Z,26.30
2019-06-20T15:27:52.001Z,26.10
2019-06-20T15:30:20.077Z,25.90
2019-06-20T15:33:04.044Z,25.70
2019-06-20T15:35:21.794Z,25.60
2019-06-20T15:37:51.575Z,25.40
2019-06-20T15:40:21.741Z,25.20
2019-06-20T15:42:51.582Z,25.00
2019-06-20T15:45:20.392Z,24.90
2019-06-20T15:47:48.824Z,24.80
2019-06-20T15:50:17.550Z,24.60
2019-06-20T15:52:46.943Z,24.40
2019-06-20T15:55:18.954Z,24.30
2019-06-20T15:57:48.677Z,24.10
2019-06-20T16:00:18.471Z,24.10
2019-06-20T16:02:47.783Z,23.90
2019-06-20T16:05:18.086Z,23.80
2019-06-20T16:07:46.502Z,23.80
2019-06-20T16:10:15.446Z,23.70
2019-06-20T16:12:44.128Z,23.70
2019-06-20T16:15:15.643Z,23.60
2019-06-20T16:17:44.166Z,23.50
2019-06-20T16:20:12.920Z,23.40
2019-06-20T16:22:41.386Z,23.30
2019-06-20T16:25:11.594Z,23.30
2019-06-20T16:27:40.086Z,23.20
2019-06-20T16:30:09.925Z,23.10
2019-06-20T16:32:38.477Z,23.10
2019-06-20T16:35:07.454Z,23.00
2019-06-20T16:37:37.344Z,23.00
2019-06-20T16:40:08.406Z,22.90
2019-06-20T16:42:37.142Z,23.00
2019-06-20T16:45:07.493Z,23.00
2019-06-20T16:47:35.931Z,23.10
2019-06-20T16:50:07.492Z,23.10
2019-06-20T16:52:36.092Z,23.20
2019-06-20T16:55:06.701Z,23.20
2019-06-20T16:57:36.732Z,23.30
2019-06-20T17:00:09.190Z,23.40
2019-06-20T17:02:37.603Z,23.50
2019-06-20T17:05:07.976Z,23.40
2019-06-20T17:07:36.536Z,23.40
2019-06-20T17:10:09.793Z,23.40
2019-06-20T17:12:38.287Z,23.40
2019-06-20T17:15:07.351Z,23.30
2019-06-20T17:17:35.777Z,23.30
2019-06-20T17:20:06.245Z,23.20
2019-06-20T17:22:35.710Z,23.10
2019-06-20T17:25:08.300Z,23.10
2019-06-20T17:27:36.805Z,23.10
2019-06-20T17:30:10.458Z,23.10
2019-06-20T17:32:38.940Z,23.00
2019-06-20T17:35:08.206Z,23.00
2019-06-20T17:37:36.723Z,22.90
2019-06-20T17:40:12.401Z,22.80
2019-06-20T17:42:40.962Z,22.70
2019-06-20T17:45:18.689Z,22.60
2019-06-20T17:47:56.597Z,22.50
2019-06-20T17:50:26.013Z,22.50
2019-06-20T17:52:54.583Z,22.30
2019-06-20T17:55:26.335Z,22.30
2019-06-20T17:57:57.729Z,22.20
2019-06-20T18:00:26.691Z,22.10
2019-06-20T18:02:55.117Z,22.00
2019-06-20T18:05:23.710Z,21.90
2019-06-20T18:07:52.164Z,21.90
2019-06-20T18:10:21.518Z,21.90
2019-06-20T18:12:49.953Z,21.90
2019-06-20T18:15:19.410Z,21.90
2019-06-20T18:17:49.770Z,21.90
2019-06-20T18:20:18.647Z,21.90
2019-06-20T18:22:47.083Z,21.90
2019-06-20T18:25:15.668Z,22.00
2019-06-20T18:27:44.163Z,22.00
2019-06-20T18:30:15.411Z,22.10
2019-06-20T18:32:43.917Z,22.30
2019-06-20T18:35:14.033Z,22.40
2019-06-20T18:37:42.901Z,22.50
2019-06-20T18:40:13.901Z,22.40
2019-06-20T18:42:42.370Z,22.40
2019-06-20T18:45:13.875Z,22.40
2019-06-20T18:47:42.401Z,22.40
2019-06-20T18:50:15.698Z,22.30
2019-06-20T18:52:52.002Z,22.30
2019-06-20T18:55:16.118Z,22.20
2019-06-20T18:57:44.569Z,22.20
2019-06-20T19:00:15.368Z,22.10
2019-06-20T19:02:44.036Z,22.00
2019-06-20T19:05:12.934Z,21.80
2019-06-20T19:07:43.044Z,21.60
2019-06-20T19:10:12.862Z,21.50
2019-06-20T19:12:41.624Z,21.40
2019-06-20T19:15:10.691Z,21.20
2019-06-20T19:17:39.313Z,21.00
2019-06-20T19:20:09.007Z,20.90
2019-06-20T19:22:39.537Z,20.80
2019-06-20T19:25:08.667Z,20.60
2019-06-20T19:27:46.149Z,20.50
2019-06-20T19:30:13.495Z,20.40
2019-06-20T19:32:42.211Z,20.30
2019-06-20T19:35:12.635Z,20.20
2019-06-20T19:37:41.126Z,20.20
2019-06-20T19:40:11.381Z,20.10
2019-06-20T19:42:42.004Z,20.00
2019-06-20T19:45:12.721Z,19.90
2019-06-20T19:47:41.695Z,19.90
2019-06-20T19:50:10.953Z,19.80
2019-06-20T19:52:39.930Z,19.80
2019-06-20T19:55:10.034Z,19.70
2019-06-20T19:57:38.605Z,19.70
2019-06-20T20:00:08.162Z,19.60
2019-06-20T20:02:36.769Z,19.50
2019-06-20T20:05:19.182Z,19.50
2019-06-20T20:07:39.555Z,19.40
2019-06-20T20:10:09.255Z,19.30
2019-06-20T20:12:37.682Z,19.20
2019-06-20T20:15:09.502Z,19.10
2019-06-20T20:17:38.165Z,19.10
2019-06-20T20:20:07.526Z,19.00
2019-06-20T20:22:36.032Z,18.90
2019-06-20T20:25:08.375Z,18.80
2019-06-20T20:27:36.782Z,18.80
2019-06-20T20:30:09.939Z,18.70
2019-06-20T20:32:38.422Z,18.60
2019-06-20T20:35:06.863Z,18.60
2019-06-20T20:37:36.351Z,18.50
2019-06-20T20:40:10.211Z,18.40
2019-06-20T20:42:38.885Z,18.40
2019-06-20T20:45:07.858Z,18.30
2019-06-20T20:47:36.359Z,18.30
2019-06-20T20:50:09.217Z,18.20
2019-06-20T20:52:37.741Z,18.20
2019-06-20T20:55:08.638Z,18.10
2019-06-20T20:57:37.045Z,18.10
2019-06-20T21:00:07.731Z,18.10
2019-06-20T21:02:36.150Z,18.00
2019-06-20T21:05:06.331Z,18.00
2019-06-20T21:07:34.810Z,17.90
2019-06-20T21:10:05.110Z,17.80
2019-06-20T21:12:33.639Z,17.70
2019-06-20T21:15:02.120Z,17.60
2019-06-20T21:17:30.701Z,17.50
2019-06-20T21:19:59.402Z,17.50
2019-06-20T21:22:27.858Z,17.50
2019-06-20T21:24:56.280Z,17.40
2019-06-20T21:27:25.103Z,17.40
2019-06-20T21:29:54.705Z,17.40
2019-06-20T21:32:24.368Z,17.30
2019-06-20T21:34:53.185Z,17.30
2019-06-20T21:37:24.686Z,17.30
2019-06-20T21:39:52.911Z,17.20
2019-06-20T21:42:21.465Z,17.20
2019-06-20T21:44:49.967Z,17.10
2019-06-20T21:47:18.389Z,17.10
2019-06-20T21:49:46.809Z,17.00
2019-06-20T21:52:15.225Z,17.00
2019-06-20T21:54:45.000Z,17.00
2019-06-20T21:57:13.473Z,16.90
2019-06-20T21:59:43.931Z,16.80
2019-06-20T22:02:13.101Z,16.80
2019-06-20T22:04:53.782Z,16.80
2019-06-20T22:07:14.388Z,16.70
2019-06-20T22:09:43.075Z,16.70
2019-06-20T22:12:11.489Z,16.60
2019-06-20T22:14:39.918Z,16.50
2019-06-20T22:17:08.343Z,16.50
2019-06-20T22:19:36.828Z,16.50
2019-06-20T22:22:05.258Z,16.40
2019-06-20T22:24:33.682Z,16.40
2019-06-20T22:27:03.401Z,16.40
2019-06-20T22:29:31.890Z,16.40
2019-06-20T22:32:00.323Z,16.40
2019-06-20T22:34:28.758Z,16.30
2019-06-20T22:36:57.558Z,16.30
2019-06-20T22:39:25.980Z,16.40
2019-06-20T22:41:54.409Z,16.30
2019-06-20T22:44:22.827Z,16.30
2019-06-20T22:46:51.337Z,16.30
2019-06-20T22:49:19.782Z,16.30
2019-06-20T22:51:48.210Z,16.20
2019-06-20T22:54:16.653Z,16.20
2019-06-20T22:56:45.148Z,16.20
2019-06-20T22:59:13.586Z,16.20
2019-06-20T23:01:42.039Z,16.10
2019-06-20T23:04:10.842Z,16.10
2019-06-20T23:06:55.084Z,16.10
2019-06-20T23:09:09.762Z,16.10
2019-06-20T23:11:38.337Z,16.10
2019-06-20T23:14:08.238Z,16.10
2019-06-20T23:16:36.714Z,16.00
2019-06-20T23:19:05.138Z,15.90
2019-06-20T23:21:33.832Z,15.80
2019-06-20T23:24:05.260Z,15.80
2019-06-20T23:26:33.467Z,15.70
2019-06-20T23:29:19.778Z,15.60
2019-06-20T23:31:48.298Z,15.60
2019-06-20T23:34:16.733Z,15.60
2019-06-20T23:36:45.173Z,15.60
2019-06-20T23:39:13.652Z,15.60
2019-06-20T23:41:42.406Z,15.60
2019-06-20T23:44:11.007Z,15.60
2019-06-20T23:46:39.456Z,15.60
2019-06-20T23:49:08.352Z,15.60
2019-06-20T23:51:38.423Z,15.60
2019-06-20T23:54:06.858Z,15.60
2019-06-20T23:56:36.051Z,15.60
2019-06-20T23:59:04.547Z,15.60
